sensor_id;sensor_type;location;lat;lon;timestamp;P1;durP1;ratioP1;P2;durP2;ratioP2
19084;SDS011;9675;51.538;6.728;2023-02-03T00:01:17;13.87;;;6.07;;
19084;SDS011;9675;51.538;6.728;2023-02-03T00:03:44;8.47;;;4.07;;
19084;SDS011;9675;51.538;6.728;2023-02-03T00:06:11;15.20;;;6.20;;
19084;SDS011;9675;51.538;6.728;2023-02-03T00:08:40;10.13;;;5.27;;
19084;SDS011;9675;51.538;6.728;2023-02-03T00:11:10;19.07;;;6.47;;
19084;SDS011;9675;51.538;6.728;2023-02-03T00:13:39;13.50;;;5.83;;
19084;SDS011;9675;51.538;6.728;2023-02-03T00:16:06;11.20;;;4.77;;
19084;SDS011;9675;51.538;6.728;2023-02-03T00:18:33;8.13;;;5.27;;
19084;SDS011;9675;51.538;6.728;2023-02-03T00:21:01;13.47;;;6.07;;
19084;SDS011;9675;51.538;6.728;2023-02-03T00:23:28;9.07;;;4.50;;
19084;SDS011;9675;51.538;6.728;2023-02-03T00:25:57;10.97;;;5.63;;
19084;SDS011;9675;51.538;6.728;2023-02-03T00:28:32;10.10;;;5.90;;
19084;SDS011;9675;51.538;6.728;2023-02-03T00:30:59;13.83;;;6.33;;
19084;SDS011;9675;51.538;6.728;2023-02-03T00:33:26;8.67;;;5.00;;
19084;SDS011;9675;51.538;6.728;2023-02-03T00:35:53;11.87;;;4.40;;
19084;SDS011;9675;51.538;6.728;2023-02-03T00:38:20;11.50;;;5.13;;
19084;SDS011;9675;51.538;6.728;2023-02-03T00:40:50;12.43;;;5.13;;
19084;SDS011;9675;51.538;6.728;2023-02-03T00:43:19;12.43;;;5.10;;
19084;SDS011;9675;51.538;6.728;2023-02-03T00:45:47;14.83;;;6.60;;
19084;SDS011;9675;51.538;6.728;2023-02-03T00:48:14;10.23;;;5.77;;
19084;SDS011;9675;51.538;6.728;2023-02-03T00:50:41;12.83;;;7.40;;
19084;SDS011;9675;51.538;6.728;2023-02-03T00:53:11;10.83;;;5.07;;
19084;SDS011;9675;51.538;6.728;2023-02-03T00:55:38;17.67;;;7.00;;
19084;SDS011;9675;51.538;6.728;2023-02-03T00:58:05;7.60;;;4.20;;
19084;SDS011;9675;51.538;6.728;2023-02-03T01:00:33;11.50;;;6.90;;
19084;SDS011;9675;51.538;6.728;2023-02-03T01:03:01;11.87;;;4.70;;
19084;SDS011;9675;51.538;6.728;2023-02-03T01:05:28;14.20;;;6.73;;
19084;SDS011;9675;51.538;6.728;2023-02-03T01:07:55;9.43;;;4.53;;
19084;SDS011;9675;51.538;6.728;2023-02-03T01:10:22;14.43;;;6.23;;
19084;SDS011;9675;51.538;6.728;2023-02-03T01:12:49;14.50;;;6.57;;
19084;SDS011;9675;51.538;6.728;2023-02-03T01:15:16;11.50;;;4.83;;
19084;SDS011;9675;51.538;6.728;2023-02-03T01:17:45;22.17;;;7.33;;
19084;SDS011;9675;51.538;6.728;2023-02-03T01:20:12;13.20;;;7.47;;
19084;SDS011;9675;51.538;6.728;2023-02-03T01:22:41;24.23;;;8.53;;
19084;SDS011;9675;51.538;6.728;2023-02-03T01:25:08;21.70;;;6.93;;
19084;SDS011;9675;51.538;6.728;2023-02-03T01:27:35;16.13;;;7.73;;
19084;SDS011;9675;51.538;6.728;2023-02-03T01:30:02;6.77;;;4.43;;
19084;SDS011;9675;51.538;6.728;2023-02-03T01:32:30;14.50;;;6.57;;
19084;SDS011;9675;51.538;6.728;2023-02-03T01:34:58;8.30;;;3.77;;
19084;SDS011;9675;51.538;6.728;2023-02-03T01:37:25;7.27;;;3.70;;
19084;SDS011;9675;51.538;6.728;2023-02-03T01:39:52;19.57;;;9.03;;
19084;SDS011;9675;51.538;6.728;2023-02-03T01:42:19;11.97;;;6.53;;
19084;SDS011;9675;51.538;6.728;2023-02-03T01:44:47;9.67;;;5.03;;
19084;SDS011;9675;51.538;6.728;2023-02-03T01:47:17;11.00;;;5.80;;
19084;SDS011;9675;51.538;6.728;2023-02-03T01:49:58;9.83;;;4.53;;
19084;SDS011;9675;51.538;6.728;2023-02-03T01:52:35;8.93;;;5.57;;
19084;SDS011;9675;51.538;6.728;2023-02-03T01:55:08;10.67;;;5.70;;
19084;SDS011;9675;51.538;6.728;2023-02-03T01:57:42;8.70;;;4.23;;
19084;SDS011;9675;51.538;6.728;2023-02-03T02:00:17;10.00;;;4.57;;
19084;SDS011;9675;51.538;6.728;2023-02-03T02:02:45;7.83;;;2.83;;
19084;SDS011;9675;51.538;6.728;2023-02-03T02:05:17;16.47;;;7.43;;
19084;SDS011;9675;51.538;6.728;2023-02-03T02:07:53;10.57;;;3.83;;
19084;SDS011;9675;51.538;6.728;2023-02-03T02:10:23;8.83;;;3.73;;
19084;SDS011;9675;51.538;6.728;2023-02-03T02:12:51;11.17;;;4.43;;
19084;SDS011;9675;51.538;6.728;2023-02-03T02:15:22;5.40;;;3.03;;
19084;SDS011;9675;51.538;6.728;2023-02-03T02:18:13;5.57;;;3.57;;
19084;SDS011;9675;51.538;6.728;2023-02-03T02:21:10;7.37;;;4.33;;
19084;SDS011;9675;51.538;6.728;2023-02-03T02:24:10;9.60;;;4.60;;
19084;SDS011;9675;51.538;6.728;2023-02-03T02:27:25;7.90;;;3.07;;
19084;SDS011;9675;51.538;6.728;2023-02-03T02:30:33;12.57;;;4.93;;
19084;SDS011;9675;51.538;6.728;2023-02-03T02:33:34;9.87;;;5.37;;
19084;SDS011;9675;51.538;6.728;2023-02-03T02:36:11;6.23;;;3.60;;
19084;SDS011;9675;51.538;6.728;2023-02-03T02:38:56;8.63;;;4.73;;
19084;SDS011;9675;51.538;6.728;2023-02-03T02:45:16;9.17;;;4.33;;
19084;SDS011;9675;51.538;6.728;2023-02-03T02:47:50;8.93;;;4.47;;
19084;SDS011;9675;51.538;6.728;2023-02-03T02:50:27;8.40;;;3.83;;
19084;SDS011;9675;51.538;6.728;2023-02-03T02:53:03;6.93;;;4.40;;
19084;SDS011;9675;51.538;6.728;2023-02-03T02:55:32;6.67;;;3.70;;
19084;SDS011;9675;51.538;6.728;2023-02-03T02:58:05;11.07;;;4.37;;
19084;SDS011;9675;51.538;6.728;2023-02-03T03:00:36;6.97;;;3.53;;
19084;SDS011;9675;51.538;6.728;2023-02-03T03:03:09;8.43;;;3.13;;
19084;SDS011;9675;51.538;6.728;2023-02-03T03:05:41;12.30;;;3.40;;
19084;SDS011;9675;51.538;6.728;2023-02-03T03:08:13;8.73;;;3.37;;
19084;SDS011;9675;51.538;6.728;2023-02-03T03:10:47;7.93;;;2.80;;
19084;SDS011;9675;51.538;6.728;2023-02-03T03:13:16;6.10;;;2.80;;
19084;SDS011;9675;51.538;6.728;2023-02-03T03:15:51;8.33;;;3.47;;
19084;SDS011;9675;51.538;6.728;2023-02-03T03:18:22;4.97;;;2.87;;
19084;SDS011;9675;51.538;6.728;2023-02-03T03:21:04;6.80;;;2.67;;
19084;SDS011;9675;51.538;6.728;2023-02-03T03:23:34;2.60;;;1.70;;
19084;SDS011;9675;51.538;6.728;2023-02-03T03:26:08;8.00;;;3.37;;
19084;SDS011;9675;51.538;6.728;2023-02-03T03:28:44;6.90;;;2.70;;
19084;SDS011;9675;51.538;6.728;2023-02-03T03:31:17;7.83;;;3.23;;
19084;SDS011;9675;51.538;6.728;2023-02-03T03:33:46;8.93;;;3.00;;
19084;SDS011;9675;51.538;6.728;2023-02-03T03:36:18;7.43;;;2.97;;
19084;SDS011;9675;51.538;6.728;2023-02-03T03:38:53;2.77;;;1.60;;
19084;SDS011;9675;51.538;6.728;2023-02-03T03:41:38;7.00;;;1.87;;
19084;SDS011;9675;51.538;6.728;2023-02-03T03:44:19;6.00;;;1.80;;
19084;SDS011;9675;51.538;6.728;2023-02-03T03:46:54;3.43;;;2.43;;
19084;SDS011;9675;51.538;6.728;2023-02-03T03:49:32;2.13;;;1.67;;
19084;SDS011;9675;51.538;6.728;2023-02-03T03:52:03;9.43;;;2.17;;
19084;SDS011;9675;51.538;6.728;2023-02-03T03:54:41;3.93;;;1.60;;
19084;SDS011;9675;51.538;6.728;2023-02-03T03:57:12;5.40;;;1.60;;
19084;SDS011;9675;51.538;6.728;2023-02-03T03:59:46;9.63;;;2.13;;
19084;SDS011;9675;51.538;6.728;2023-02-03T04:02:16;4.00;;;1.90;;
19084;SDS011;9675;51.538;6.728;2023-02-03T04:04:45;2.67;;;1.57;;
19084;SDS011;9675;51.538;6.728;2023-02-03T04:07:16;4.83;;;1.83;;
19084;SDS011;9675;51.538;6.728;2023-02-03T04:09:44;5.40;;;1.37;;
19084;SDS011;9675;51.538;6.728;2023-02-03T04:12:12;4.20;;;2.40;;
19084;SDS011;9675;51.538;6.728;2023-02-03T04:14:49;5.47;;;1.93;;
19084;SDS011;9675;51.538;6.728;2023-02-03T04:17:16;9.57;;;2.10;;
19084;SDS011;9675;51.538;6.728;2023-02-03T04:19:44;5.23;;;1.50;;
19084;SDS011;9675;51.538;6.728;2023-02-03T04:22:12;6.03;;;1.67;;
19084;SDS011;9675;51.538;6.728;2023-02-03T04:24:40;3.63;;;1.70;;
19084;SDS011;9675;51.538;6.728;2023-02-03T04:27:07;2.43;;;1.40;;
19084;SDS011;9675;51.538;6.728;2023-02-03T04:29:34;4.60;;;2.00;;
19084;SDS011;9675;51.538;6.728;2023-02-03T04:32:01;1.03;;;0.80;;
19084;SDS011;9675;51.538;6.728;2023-02-03T04:34:29;2.70;;;1.63;;
19084;SDS011;9675;51.538;6.728;2023-02-03T04:36:56;5.80;;;2.33;;
19084;SDS011;9675;51.538;6.728;2023-02-03T04:39:23;6.03;;;2.07;;
19084;SDS011;9675;51.538;6.728;2023-02-03T04:41:51;10.27;;;2.77;;
19084;SDS011;9675;51.538;6.728;2023-02-03T04:44:22;4.07;;;2.00;;
19084;SDS011;9675;51.538;6.728;2023-02-03T04:46:49;6.97;;;2.03;;
19084;SDS011;9675;51.538;6.728;2023-02-03T04:49:16;3.87;;;1.90;;
19084;SDS011;9675;51.538;6.728;2023-02-03T04:51:43;4.87;;;1.73;;
19084;SDS011;9675;51.538;6.728;2023-02-03T04:54:13;4.20;;;2.10;;
19084;SDS011;9675;51.538;6.728;2023-02-03T04:56:43;3.17;;;1.33;;
19084;SDS011;9675;51.538;6.728;2023-02-03T04:59:13;3.50;;;1.60;;
19084;SDS011;9675;51.538;6.728;2023-02-03T05:01:41;5.63;;;1.83;;
19084;SDS011;9675;51.538;6.728;2023-02-03T05:04:08;3.43;;;1.90;;
19084;SDS011;9675;51.538;6.728;2023-02-03T05:06:35;3.67;;;2.23;;
19084;SDS011;9675;51.538;6.728;2023-02-03T05:09:02;5.63;;;1.87;;
19084;SDS011;9675;51.538;6.728;2023-02-03T05:11:30;5.50;;;1.67;;
19084;SDS011;9675;51.538;6.728;2023-02-03T05:13:57;3.00;;;1.80;;
19084;SDS011;9675;51.538;6.728;2023-02-03T05:16:26;3.40;;;1.47;;
19084;SDS011;9675;51.538;6.728;2023-02-03T05:18:53;1.03;;;0.80;;
19084;SDS011;9675;51.538;6.728;2023-02-03T05:21:20;4.80;;;1.40;;
19084;SDS011;9675;51.538;6.728;2023-02-03T05:23:47;3.23;;;1.27;;
19084;SDS011;9675;51.538;6.728;2023-02-03T05:26:15;10.87;;;1.97;;
19084;SDS011;9675;51.538;6.728;2023-02-03T05:28:42;3.20;;;1.80;;
19084;SDS011;9675;51.538;6.728;2023-02-03T05:31:11;2.43;;;1.30;;
19084;SDS011;9675;51.538;6.728;2023-02-03T05:33:40;4.60;;;1.10;;
19084;SDS011;9675;51.538;6.728;2023-02-03T05:36:07;6.10;;;1.83;;
19084;SDS011;9675;51.538;6.728;2023-02-03T05:38:35;1.97;;;1.20;;
19084;SDS011;9675;51.538;6.728;2023-02-03T05:41:02;7.23;;;1.63;;
19084;SDS011;9675;51.538;6.728;2023-02-03T05:43:47;5.93;;;1.50;;
19084;SDS011;9675;51.538;6.728;2023-02-03T05:46:14;5.70;;;1.77;;
19084;SDS011;9675;51.538;6.728;2023-02-03T05:48:42;6.33;;;1.57;;
19084;SDS011;9675;51.538;6.728;2023-02-03T05:51:09;0.83;;;0.80;;
19084;SDS011;9675;51.538;6.728;2023-02-03T05:53:36;5.93;;;1.87;;
19084;SDS011;9675;51.538;6.728;2023-02-03T05:56:03;2.90;;;1.53;;
19084;SDS011;9675;51.538;6.728;2023-02-03T05:58:31;9.53;;;2.10;;
19084;SDS011;9675;51.538;6.728;2023-02-03T06:00:58;5.03;;;2.03;;
19084;SDS011;9675;51.538;6.728;2023-02-03T06:03:25;4.10;;;1.60;;
19084;SDS011;9675;51.538;6.728;2023-02-03T06:05:54;1.73;;;1.10;;
19084;SDS011;9675;51.538;6.728;2023-02-03T06:08:21;1.37;;;0.87;;
19084;SDS011;9675;51.538;6.728;2023-02-03T06:10:52;8.10;;;2.87;;
19084;SDS011;9675;51.538;6.728;2023-02-03T06:13:24;4.60;;;1.50;;
19084;SDS011;9675;51.538;6.728;2023-02-03T06:15:55;5.87;;;2.03;;
19084;SDS011;9675;51.538;6.728;2023-02-03T06:18:22;8.90;;;3.20;;
19084;SDS011;9675;51.538;6.728;2023-02-03T06:20:50;4.30;;;2.03;;
19084;SDS011;9675;51.538;6.728;2023-02-03T06:23:18;5.37;;;2.13;;
19084;SDS011;9675;51.538;6.728;2023-02-03T06:25:46;2.40;;;1.80;;
19084;SDS011;9675;51.538;6.728;2023-02-03T06:28:14;2.33;;;1.30;;
19084;SDS011;9675;51.538;6.728;2023-02-03T06:30:42;3.73;;;0.70;;
19084;SDS011;9675;51.538;6.728;2023-02-03T06:33:09;11.30;;;1.97;;
19084;SDS011;9675;51.538;6.728;2023-02-03T06:35:36;4.67;;;1.40;;
19084;SDS011;9675;51.538;6.728;2023-02-03T06:38:03;3.07;;;1.17;;
19084;SDS011;9675;51.538;6.728;2023-02-03T06:40:32;6.20;;;1.90;;
19084;SDS011;9675;51.538;6.728;2023-02-03T06:42:59;4.50;;;1.13;;
19084;SDS011;9675;51.538;6.728;2023-02-03T06:45:26;2.40;;;1.17;;
19084;SDS011;9675;51.538;6.728;2023-02-03T06:47:53;4.07;;;1.43;;
19084;SDS011;9675;51.538;6.728;2023-02-03T06:50:20;1.83;;;1.10;;
19084;SDS011;9675;51.538;6.728;2023-02-03T06:52:48;3.17;;;1.10;;
19084;SDS011;9675;51.538;6.728;2023-02-03T06:55:21;2.37;;;1.00;;
19084;SDS011;9675;51.538;6.728;2023-02-03T06:57:50;1.80;;;0.80;;
19084;SDS011;9675;51.538;6.728;2023-02-03T07:00:17;1.77;;;1.10;;
19084;SDS011;9675;51.538;6.728;2023-02-03T07:02:51;2.50;;;1.13;;
19084;SDS011;9675;51.538;6.728;2023-02-03T07:05:19;4.80;;;1.40;;
19084;SDS011;9675;51.538;6.728;2023-02-03T07:07:47;3.93;;;1.40;;
19084;SDS011;9675;51.538;6.728;2023-02-03T07:10:14;1.27;;;0.70;;
19084;SDS011;9675;51.538;6.728;2023-02-03T07:12:41;3.33;;;1.13;;
19084;SDS011;9675;51.538;6.728;2023-02-03T07:15:10;6.57;;;1.80;;
19084;SDS011;9675;51.538;6.728;2023-02-03T07:17:38;2.03;;;1.20;;
19084;SDS011;9675;51.538;6.728;2023-02-03T07:20:05;4.40;;;1.80;;
19084;SDS011;9675;51.538;6.728;2023-02-03T07:22:34;2.30;;;1.33;;
19084;SDS011;9675;51.538;6.728;2023-02-03T07:25:02;5.27;;;2.53;;
19084;SDS011;9675;51.538;6.728;2023-02-03T07:27:30;5.53;;;1.73;;
19084;SDS011;9675;51.538;6.728;2023-02-03T07:29:58;3.03;;;1.67;;
19084;SDS011;9675;51.538;6.728;2023-02-03T07:32:26;1.33;;;0.70;;
19084;SDS011;9675;51.538;6.728;2023-02-03T07:34:53;7.17;;;1.10;;
19084;SDS011;9675;51.538;6.728;2023-02-03T07:37:20;1.30;;;0.73;;
19084;SDS011;9675;51.538;6.728;2023-02-03T07:39:47;4.90;;;1.63;;
19084;SDS011;9675;51.538;6.728;2023-02-03T07:42:14;1.63;;;1.10;;
19084;SDS011;9675;51.538;6.728;2023-02-03T07:44:41;4.00;;;1.20;;
19084;SDS011;9675;51.538;6.728;2023-02-03T07:47:09;4.27;;;1.27;;
19084;SDS011;9675;51.538;6.728;2023-02-03T07:49:37;5.27;;;1.47;;
19084;SDS011;9675;51.538;6.728;2023-02-03T07:52:04;1.57;;;0.50;;
19084;SDS011;9675;51.538;6.728;2023-02-03T07:54:31;9.23;;;1.17;;
19084;SDS011;9675;51.538;6.728;2023-02-03T07:56:59;1.90;;;1.03;;
19084;SDS011;9675;51.538;6.728;2023-02-03T07:59:26;3.93;;;1.50;;
19084;SDS011;9675;51.538;6.728;2023-02-03T08:01:53;3.00;;;1.00;;
19084;SDS011;9675;51.538;6.728;2023-02-03T08:04:23;0.60;;;0.50;;
19084;SDS011;9675;51.538;6.728;2023-02-03T08:06:52;1.93;;;1.07;;
19084;SDS011;9675;51.538;6.728;2023-02-03T08:09:19;1.60;;;1.10;;
19084;SDS011;9675;51.538;6.728;2023-02-03T08:11:46;6.43;;;2.20;;
19084;SDS011;9675;51.538;6.728;2023-02-03T08:14:13;1.60;;;0.80;;
19084;SDS011;9675;51.538;6.728;2023-02-03T08:16:40;0.60;;;0.30;;
19084;SDS011;9675;51.538;6.728;2023-02-03T08:19:08;3.73;;;0.90;;
19084;SDS011;9675;51.538;6.728;2023-02-03T08:21:36;1.33;;;0.97;;
19084;SDS011;9675;51.538;6.728;2023-02-03T08:24:05;1.60;;;0.77;;
19084;SDS011;9675;51.538;6.728;2023-02-03T08:26:32;4.20;;;1.07;;
19084;SDS011;9675;51.538;6.728;2023-02-03T08:29:00;3.17;;;1.33;;
19084;SDS011;9675;51.538;6.728;2023-02-03T08:31:28;2.67;;;1.20;;
19084;SDS011;9675;51.538;6.728;2023-02-03T08:33:55;5.27;;;1.37;;
19084;SDS011;9675;51.538;6.728;2023-02-03T08:36:22;6.07;;;1.63;;
19084;SDS011;9675;51.538;6.728;2023-02-03T08:38:50;3.10;;;0.67;;
19084;SDS011;9675;51.538;6.728;2023-02-03T08:41:18;5.37;;;1.20;;
19084;SDS011;9675;51.538;6.728;2023-02-03T08:43:45;1.83;;;0.83;;
19084;SDS011;9675;51.538;6.728;2023-02-03T08:46:13;3.23;;;0.87;;
19084;SDS011;9675;51.538;6.728;2023-02-03T08:48:40;1.40;;;0.63;;
19084;SDS011;9675;51.538;6.728;2023-02-03T08:51:10;3.60;;;1.00;;
19084;SDS011;9675;51.538;6.728;2023-02-03T08:53:40;1.47;;;1.20;;
19084;SDS011;9675;51.538;6.728;2023-02-03T08:56:12;1.63;;;0.80;;
19084;SDS011;9675;51.538;6.728;2023-02-03T08:58:54;1.90;;;1.00;;
19084;SDS011;9675;51.538;6.728;2023-02-03T09:01:40;2.83;;;1.20;;
19084;SDS011;9675;51.538;6.728;2023-02-03T09:04:10;1.23;;;0.70;;
19084;SDS011;9675;51.538;6.728;2023-02-03T09:06:38;3.67;;;1.27;;
19084;SDS011;9675;51.538;6.728;2023-02-03T09:09:05;0.90;;;0.80;;
19084;SDS011;9675;51.538;6.728;2023-02-03T09:11:32;1.00;;;0.90;;
19084;SDS011;9675;51.538;6.728;2023-02-03T09:14:01;12.00;;;2.03;;
19084;SDS011;9675;51.538;6.728;2023-02-03T09:16:28;9.50;;;1.57;;
19084;SDS011;9675;51.538;6.728;2023-02-03T09:18:55;1.80;;;1.47;;
19084;SDS011;9675;51.538;6.728;2023-02-03T09:21:23;0.93;;;0.73;;
19084;SDS011;9675;51.538;6.728;2023-02-03T09:23:50;3.87;;;1.27;;
19084;SDS011;9675;51.538;6.728;2023-02-03T09:26:17;2.97;;;1.70;;
19084;SDS011;9675;51.538;6.728;2023-02-03T09:28:44;1.67;;;0.50;;
19084;SDS011;9675;51.538;6.728;2023-02-03T09:31:13;5.03;;;0.90;;
19084;SDS011;9675;51.538;6.728;2023-02-03T09:33:42;3.70;;;1.70;;
19084;SDS011;9675;51.538;6.728;2023-02-03T09:36:09;2.43;;;1.40;;
19084;SDS011;9675;51.538;6.728;2023-02-03T09:38:36;4.13;;;1.10;;
19084;SDS011;9675;51.538;6.728;2023-02-03T09:41:06;3.63;;;1.10;;
19084;SDS011;9675;51.538;6.728;2023-02-03T09:43:50;3.37;;;1.27;;
19084;SDS011;9675;51.538;6.728;2023-02-03T09:46:28;3.93;;;1.53;;
19084;SDS011;9675;51.538;6.728;2023-02-03T09:49:02;1.90;;;0.37;;
19084;SDS011;9675;51.538;6.728;2023-02-03T09:51:39;10.37;;;1.50;;
19084;SDS011;9675;51.538;6.728;2023-02-03T09:54:14;3.33;;;1.40;;
19084;SDS011;9675;51.538;6.728;2023-02-03T09:56:46;2.90;;;1.57;;
19084;SDS011;9675;51.538;6.728;2023-02-03T09:59:19;1.40;;;0.97;;
19084;SDS011;9675;51.538;6.728;2023-02-03T10:01:50;3.80;;;1.37;;
19084;SDS011;9675;51.538;6.728;2023-02-03T10:04:27;3.37;;;1.53;;
19084;SDS011;9675;51.538;6.728;2023-02-03T10:07:06;1.60;;;0.73;;
19084;SDS011;9675;51.538;6.728;2023-02-03T10:09:47;4.63;;;0.97;;
19084;SDS011;9675;51.538;6.728;2023-02-03T10:12:36;2.87;;;1.13;;
19084;SDS011;9675;51.538;6.728;2023-02-03T10:15:37;3.10;;;0.90;;
19084;SDS011;9675;51.538;6.728;2023-02-03T10:18:51;8.17;;;1.40;;
19084;SDS011;9675;51.538;6.728;2023-02-03T10:21:25;1.00;;;0.70;;
19084;SDS011;9675;51.538;6.728;2023-02-03T10:24:02;1.67;;;0.90;;
19084;SDS011;9675;51.538;6.728;2023-02-03T10:26:38;2.80;;;1.27;;
19084;SDS011;9675;51.538;6.728;2023-02-03T10:29:14;1.47;;;0.70;;
19084;SDS011;9675;51.538;6.728;2023-02-03T10:31:53;3.17;;;1.40;;
19084;SDS011;9675;51.538;6.728;2023-02-03T10:34:24;10.47;;;1.70;;
19084;SDS011;9675;51.538;6.728;2023-02-03T10:36:53;3.70;;;1.23;;
19084;SDS011;9675;51.538;6.728;2023-02-03T10:39:29;5.27;;;2.00;;
19084;SDS011;9675;51.538;6.728;2023-02-03T10:42:04;9.90;;;3.83;;
19084;SDS011;9675;51.538;6.728;2023-02-03T10:44:35;3.00;;;1.33;;
19084;SDS011;9675;51.538;6.728;2023-02-03T10:47:14;12.57;;;2.57;;
19084;SDS011;9675;51.538;6.728;2023-02-03T10:49:52;3.47;;;0.93;;
19084;SDS011;9675;51.538;6.728;2023-02-03T10:52:26;1.87;;;1.47;;
19084;SDS011;9675;51.538;6.728;2023-02-03T10:54:58;5.53;;;2.37;;
19084;SDS011;9675;51.538;6.728;2023-02-03T10:57:32;17.33;;;5.43;;
19084;SDS011;9675;51.538;6.728;2023-02-03T11:00:05;8.10;;;3.00;;
19084;SDS011;9675;51.538;6.728;2023-02-03T11:02:53;6.07;;;2.77;;
19084;SDS011;9675;51.538;6.728;2023-02-03T11:05:24;3.93;;;1.53;;
19084;SDS011;9675;51.538;6.728;2023-02-03T11:07:51;7.77;;;2.67;;
19084;SDS011;9675;51.538;6.728;2023-02-03T11:10:30;3.07;;;1.77;;
19084;SDS011;9675;51.538;6.728;2023-02-03T11:13:11;1.23;;;0.93;;
19084;SDS011;9675;51.538;6.728;2023-02-03T11:15:50;2.33;;;1.57;;
19084;SDS011;9675;51.538;6.728;2023-02-03T11:21:27;23.13;;;3.13;;
19084;SDS011;9675;51.538;6.728;2023-02-03T11:24:02;7.30;;;4.27;;
19084;SDS011;9675;51.538;6.728;2023-02-03T11:26:38;6.90;;;1.63;;
19084;SDS011;9675;51.538;6.728;2023-02-03T11:29:14;5.07;;;2.17;;
19084;SDS011;9675;51.538;6.728;2023-02-03T11:31:48;3.57;;;2.37;;
19084;SDS011;9675;51.538;6.728;2023-02-03T11:34:18;2.40;;;1.30;;
19084;SDS011;9675;51.538;6.728;2023-02-03T11:36:53;7.13;;;3.23;;
19084;SDS011;9675;51.538;6.728;2023-02-03T11:39:25;3.50;;;1.83;;
19084;SDS011;9675;51.538;6.728;2023-02-03T11:42:00;3.27;;;1.93;;
19084;SDS011;9675;51.538;6.728;2023-02-03T11:44:29;7.60;;;3.60;;
19084;SDS011;9675;51.538;6.728;2023-02-03T11:46:58;9.27;;;2.53;;
19084;SDS011;9675;51.538;6.728;2023-02-03T11:52:54;3.13;;;1.73;;
19084;SDS011;9675;51.538;6.728;2023-02-03T11:55:51;2.70;;;1.30;;
19084;SDS011;9675;51.538;6.728;2023-02-03T12:01:53;8.00;;;2.80;;
19084;SDS011;9675;51.538;6.728;2023-02-03T12:05:05;6.40;;;2.07;;
19084;SDS011;9675;51.538;6.728;2023-02-03T12:08:04;3.83;;;1.40;;
19084;SDS011;9675;51.538;6.728;2023-02-03T12:10:45;8.27;;;2.37;;
19084;SDS011;9675;51.538;6.728;2023-02-03T12:13:35;7.83;;;1.57;;
19084;SDS011;9675;51.538;6.728;2023-02-03T12:19:28;4.93;;;0.70;;
19084;SDS011;9675;51.538;6.728;2023-02-03T12:22:11;2.40;;;0.83;;
19084;SDS011;9675;51.538;6.728;2023-02-03T12:25:03;1.17;;;0.80;;
19084;SDS011;9675;51.538;6.728;2023-02-03T12:27:53;7.30;;;2.27;;
19084;SDS011;9675;51.538;6.728;2023-02-03T12:30:36;0.63;;;0.57;;
19084;SDS011;9675;51.538;6.728;2023-02-03T12:33:11;6.17;;;2.60;;
19084;SDS011;9675;51.538;6.728;2023-02-03T12:35:47;3.80;;;1.53;;
19084;SDS011;9675;51.538;6.728;2023-02-03T12:38:23;1.13;;;0.87;;
19084;SDS011;9675;51.538;6.728;2023-02-03T12:41:03;10.43;;;2.57;;
19084;SDS011;9675;51.538;6.728;2023-02-03T12:43:38;2.23;;;0.80;;
19084;SDS011;9675;51.538;6.728;2023-02-03T12:46:15;2.63;;;0.67;;
19084;SDS011;9675;51.538;6.728;2023-02-03T12:48:49;4.47;;;1.87;;
19084;SDS011;9675;51.538;6.728;2023-02-03T12:51:27;1.77;;;0.97;;
19084;SDS011;9675;51.538;6.728;2023-02-03T12:54:05;2.57;;;2.30;;
19084;SDS011;9675;51.538;6.728;2023-02-03T12:57:11;5.73;;;2.50;;
19084;SDS011;9675;51.538;6.728;2023-02-03T12:59:49;5.83;;;2.27;;
19084;SDS011;9675;51.538;6.728;2023-02-03T13:02:29;1.20;;;1.10;;
19084;SDS011;9675;51.538;6.728;2023-02-03T13:05:12;3.83;;;2.13;;
19084;SDS011;9675;51.538;6.728;2023-02-03T13:07:50;3.33;;;1.50;;
19084;SDS011;9675;51.538;6.728;2023-02-03T13:10:28;4.03;;;1.57;;
19084;SDS011;9675;51.538;6.728;2023-02-03T13:13:09;3.83;;;1.80;;
19084;SDS011;9675;51.538;6.728;2023-02-03T13:15:42;2.27;;;0.90;;
19084;SDS011;9675;51.538;6.728;2023-02-03T13:18:18;2.47;;;1.63;;
19084;SDS011;9675;51.538;6.728;2023-02-03T13:20:53;2.30;;;1.03;;
19084;SDS011;9675;51.538;6.728;2023-02-03T13:23:24;3.30;;;1.97;;
19084;SDS011;9675;51.538;6.728;2023-02-03T13:26:04;2.17;;;1.30;;
19084;SDS011;9675;51.538;6.728;2023-02-03T13:29:00;0.97;;;0.77;;
19084;SDS011;9675;51.538;6.728;2023-02-03T13:31:47;6.30;;;2.43;;
19084;SDS011;9675;51.538;6.728;2023-02-03T13:34:36;5.43;;;3.27;;
19084;SDS011;9675;51.538;6.728;2023-02-03T13:37:45;26.83;;;7.73;;
19084;SDS011;9675;51.538;6.728;2023-02-03T13:40:55;30.67;;;9.00;;
19084;SDS011;9675;51.538;6.728;2023-02-03T13:43:33;6.70;;;3.03;;
19084;SDS011;9675;51.538;6.728;2023-02-03T13:46:07;7.67;;;3.97;;
19084;SDS011;9675;51.538;6.728;2023-02-03T13:48:49;17.27;;;5.87;;
19084;SDS011;9675;51.538;6.728;2023-02-03T13:51:19;4.13;;;2.07;;
19084;SDS011;9675;51.538;6.728;2023-02-03T13:53:57;13.83;;;4.53;;
19084;SDS011;9675;51.538;6.728;2023-02-03T13:56:28;6.27;;;2.33;;
19084;SDS011;9675;51.538;6.728;2023-02-03T13:58:57;1.57;;;0.93;;
19084;SDS011;9675;51.538;6.728;2023-02-03T14:01:37;7.20;;;3.03;;
19084;SDS011;9675;51.538;6.728;2023-02-03T14:04:06;0.50;;;0.33;;
19084;SDS011;9675;51.538;6.728;2023-02-03T14:06:59;0.93;;;0.70;;
19084;SDS011;9675;51.538;6.728;2023-02-03T14:09:34;3.30;;;0.63;;
19084;SDS011;9675;51.538;6.728;2023-02-03T14:15:31;7.80;;;1.33;;
19084;SDS011;9675;51.538;6.728;2023-02-03T14:23:48;0.63;;;0.40;;
19084;SDS011;9675;51.538;6.728;2023-02-03T14:26:38;5.97;;;1.00;;
19084;SDS011;9675;51.538;6.728;2023-02-03T14:29:10;5.30;;;1.03;;
19084;SDS011;9675;51.538;6.728;2023-02-03T14:31:55;5.20;;;0.73;;
19084;SDS011;9675;51.538;6.728;2023-02-03T14:34:29;4.60;;;1.37;;
19084;SDS011;9675;51.538;6.728;2023-02-03T14:37:11;8.23;;;1.43;;
19084;SDS011;9675;51.538;6.728;2023-02-03T14:39:59;1.60;;;0.57;;
19084;SDS011;9675;51.538;6.728;2023-02-03T14:42:59;6.13;;;1.30;;
19084;SDS011;9675;51.538;6.728;2023-02-03T14:46:05;0.27;;;0.20;;
19084;SDS011;9675;51.538;6.728;2023-02-03T14:49:25;1.43;;;0.90;;
19084;SDS011;9675;51.538;6.728;2023-02-03T14:52:15;2.47;;;0.40;;
19084;SDS011;9675;51.538;6.728;2023-02-03T14:55:13;5.07;;;0.73;;
19084;SDS011;9675;51.538;6.728;2023-02-03T14:58:03;3.50;;;0.40;;
19084;SDS011;9675;51.538;6.728;2023-02-03T15:00:48;3.77;;;0.67;;
19084;SDS011;9675;51.538;6.728;2023-02-03T15:03:18;16.83;;;1.83;;
19084;SDS011;9675;51.538;6.728;2023-02-03T15:05:57;3.50;;;1.27;;
19084;SDS011;9675;51.538;6.728;2023-02-03T15:08:31;0.70;;;0.37;;
19084;SDS011;9675;51.538;6.728;2023-02-03T15:11:27;2.77;;;1.27;;
19084;SDS011;9675;51.538;6.728;2023-02-03T15:16:51;5.40;;;0.67;;
19084;SDS011;9675;51.538;6.728;2023-02-03T15:19:23;7.07;;;1.17;;
19084;SDS011;9675;51.538;6.728;2023-02-03T15:21:55;6.60;;;1.40;;
19084;SDS011;9675;51.538;6.728;2023-02-03T15:24:32;6.80;;;1.47;;
19084;SDS011;9675;51.538;6.728;2023-02-03T15:27:02;6.93;;;1.67;;
19084;SDS011;9675;51.538;6.728;2023-02-03T15:29:31;6.23;;;1.33;;
19084;SDS011;9675;51.538;6.728;2023-02-03T15:32:01;12.00;;;3.30;;
19084;SDS011;9675;51.538;6.728;2023-02-03T15:34:36;6.37;;;1.23;;
19084;SDS011;9675;51.538;6.728;2023-02-03T15:37:12;5.87;;;1.10;;
19084;SDS011;9675;51.538;6.728;2023-02-03T15:39:48;2.57;;;1.37;;
19084;SDS011;9675;51.538;6.728;2023-02-03T15:42:26;4.47;;;0.57;;
19084;SDS011;9675;51.538;6.728;2023-02-03T15:44:59;9.53;;;1.43;;
19084;SDS011;9675;51.538;6.728;2023-02-03T15:47:34;1.90;;;0.63;;
19084;SDS011;9675;51.538;6.728;2023-02-03T15:50:18;6.63;;;1.13;;
19084;SDS011;9675;51.538;6.728;2023-02-03T15:52:57;1.40;;;0.70;;
19084;SDS011;9675;51.538;6.728;2023-02-03T15:55:32;1.03;;;0.60;;
19084;SDS011;9675;51.538;6.728;2023-02-03T15:58:10;4.43;;;1.60;;
19084;SDS011;9675;51.538;6.728;2023-02-03T16:00:46;3.83;;;0.93;;
19084;SDS011;9675;51.538;6.728;2023-02-03T16:03:17;10.43;;;1.83;;
19084;SDS011;9675;51.538;6.728;2023-02-03T16:05:48;7.33;;;1.40;;
19084;SDS011;9675;51.538;6.728;2023-02-03T16:11:19;5.80;;;1.53;;